createdAt,value
2024-03-25T00:00:13.165Z,112.00
2024-03-25T00:00:43.822Z,110.00
2024-03-25T00:01:14.411Z,109.33
2024-03-25T00:01:45.683Z,109.00
2024-03-25T00:02:16.397Z,109.00
2024-03-25T00:02:47.329Z,110.00
2024-03-25T00:03:18.343Z,110.00
2024-03-25T00:03:48.987Z,110.00
2024-03-25T00:04:22.713Z,110.00
2024-03-25T00:04:53.318Z,110.67
2024-03-25T00:05:25.632Z,111.00
2024-03-25T00:05:57.373Z,111.00
2024-03-25T00:06:33.372Z,111.00
2024-03-25T00:07:04.985Z,111.00
2024-03-25T00:07:38.450Z,110.00
2024-03-25T00:08:09.098Z,109.33
2024-03-25T00:08:39.680Z,109.00
2024-03-25T00:09:14.048Z,109.33
2024-03-25T00:09:45.619Z,110.00
2024-03-25T00:10:16.208Z,110.00
2024-03-25T00:10:46.778Z,110.00
2024-03-25T00:11:22.330Z,110.00
2024-03-25T00:11:54.334Z,108.33
2024-03-25T00:12:27.697Z,108.00
2024-03-25T00:12:58.264Z,108.00
2024-03-25T00:13:28.823Z,108.00
2024-03-25T00:13:59.826Z,107.67
2024-03-25T00:14:32.063Z,107.00
2024-03-25T00:15:02.947Z,106.00
2024-03-25T00:15:34.788Z,105.00
2024-03-25T00:16:06.607Z,104.33
2024-03-25T00:16:37.230Z,103.33
2024-03-25T00:17:11.282Z,103.00
2024-03-25T00:17:42.346Z,104.00
2024-03-25T00:18:12.982Z,104.00
2024-03-25T00:18:43.570Z,104.00
2024-03-25T00:19:14.279Z,104.00
2024-03-25T00:19:50.511Z,104.00
2024-03-25T00:20:21.666Z,102.00
2024-03-25T00:20:52.845Z,102.33
2024-03-25T00:21:24.496Z,103.00
2024-03-25T00:21:55.064Z,104.00
2024-03-25T00:22:25.755Z,104.00
2024-03-25T00:22:56.826Z,104.00
2024-03-25T00:23:28.567Z,104.00
2024-03-25T00:24:00.847Z,104.33
2024-03-25T00:24:31.848Z,105.00
2024-03-25T00:25:03.944Z,104.33
2024-03-25T00:25:36.907Z,103.67
2024-03-25T00:26:07.944Z,102.00
2024-03-25T00:26:38.510Z,100.00
2024-03-25T00:27:09.068Z,98.33
2024-03-25T00:27:39.634Z,98.00
2024-03-25T00:28:10.191Z,98.33
2024-03-25T00:28:40.753Z,99.00
2024-03-25T00:29:11.296Z,99.00
2024-03-25T00:29:41.859Z,99.00
2024-03-25T00:30:12.486Z,100.00
2024-03-25T00:30:43.072Z,100.00
2024-03-25T00:31:13.635Z,101.00
2024-03-25T00:31:44.200Z,101.00
2024-03-25T00:32:16.323Z,102.00
2024-03-25T00:32:46.873Z,102.00
2024-03-25T00:33:17.560Z,103.00
2024-03-25T00:33:48.132Z,103.33
2024-03-25T00:34:18.701Z,104.00
2024-03-25T00:34:49.250Z,104.67
2024-03-25T00:35:20.873Z,105.00
2024-03-25T00:35:51.705Z,104.33
2024-03-25T00:36:22.828Z,103.67
2024-03-25T00:36:53.381Z,103.00
2024-03-25T00:37:24.251Z,102.00
2024-03-25T00:37:54.889Z,101.33
2024-03-25T00:38:25.486Z,100.67
2024-03-25T00:38:56.059Z,100.00
2024-03-25T00:39:27.379Z,100.00
2024-03-25T00:39:57.947Z,101.00
2024-03-25T00:40:28.509Z,101.00
2024-03-25T00:41:00.075Z,101.00
2024-03-25T00:41:30.648Z,101.00
2024-03-25T00:42:01.393Z,101.00
2024-03-25T00:42:31.949Z,101.00
2024-03-25T00:43:02.619Z,100.33
2024-03-25T00:43:33.406Z,100.00
2024-03-25T00:44:04.019Z,99.33
2024-03-25T00:44:35.029Z,98.67
2024-03-25T00:45:07.780Z,97.33
2024-03-25T00:45:38.498Z,94.33
2024-03-25T00:46:09.094Z,91.00
2024-03-25T00:46:41.651Z,89.33
2024-03-25T00:47:12.812Z,89.00
2024-03-25T00:47:44.657Z,89.00
2024-03-25T00:48:15.220Z,89.00
2024-03-25T00:48:45.777Z,88.00
2024-03-25T00:49:16.342Z,87.67
2024-03-25T00:49:46.899Z,87.00
2024-03-25T00:50:17.524Z,87.00
2024-03-25T00:50:48.089Z,87.00
2024-03-25T00:51:18.646Z,87.00
2024-03-25T00:51:50.175Z,87.00
2024-03-25T00:52:20.782Z,88.00
2024-03-25T00:52:51.324Z,88.00
2024-03-25T00:53:22.372Z,88.00
2024-03-25T00:53:52.946Z,88.00
2024-03-25T00:54:23.590Z,88.00
2024-03-25T00:54:54.172Z,88.33
2024-03-25T00:55:28.615Z,89.00
2024-03-25T00:55:59.174Z,89.00
2024-03-25T00:56:30.776Z,89.67
2024-03-25T00:57:01.333Z,91.00
2024-03-25T00:57:32.862Z,94.67
2024-03-25T00:58:04.048Z,97.67
2024-03-25T00:58:34.592Z,100.00
2024-03-25T00:59:06.350Z,101.33
2024-03-25T00:59:37.332Z,102.33
2024-03-25T01:00:09.182Z,103.00
2024-03-25T01:00:39.750Z,102.67
2024-03-25T01:01:10.326Z,102.00
2024-03-25T01:01:40.911Z,102.00
2024-03-25T01:02:11.463Z,101.00
2024-03-25T01:02:42.244Z,101.00
2024-03-25T01:03:12.801Z,99.67
2024-03-25T01:03:43.367Z,98.33
2024-03-25T01:04:13.925Z,96.00
2024-03-25T01:04:44.496Z,94.00
2024-03-25T01:05:15.189Z,91.00
2024-03-25T01:05:45.753Z,89.00
2024-03-25T01:06:16.309Z,88.00
2024-03-25T01:06:46.996Z,87.33
2024-03-25T01:07:17.796Z,87.00
2024-03-25T01:07:49.051Z,86.00
2024-03-25T01:08:20.028Z,86.00
2024-03-25T01:08:50.944Z,86.00
2024-03-25T01:09:22.053Z,86.00
2024-03-25T01:09:52.606Z,86.00
2024-03-25T01:10:23.175Z,86.00
2024-03-25T01:10:53.750Z,85.33
2024-03-25T01:11:24.365Z,83.33
2024-03-25T01:11:54.932Z,81.33
2024-03-25T01:12:25.760Z,79.00
2024-03-25T01:12:57.484Z,76.00
2024-03-25T01:13:28.046Z,73.00
2024-03-25T01:13:58.723Z,71.00
2024-03-25T01:14:29.279Z,69.33
2024-03-25T01:14:59.831Z,68.00
2024-03-25T01:15:30.381Z,66.33
2024-03-25T01:16:01.257Z,65.67
2024-03-25T01:16:32.466Z,66.33
2024-03-25T01:17:03.128Z,67.00
2024-03-25T01:17:33.684Z,68.00
2024-03-25T01:18:04.315Z,68.00
2024-03-25T01:18:36.028Z,67.33
2024-03-25T01:19:06.741Z,66.00
2024-03-25T01:19:37.296Z,65.00
2024-03-25T01:20:09.130Z,64.33
2024-03-25T01:20:39.687Z,63.00
2024-03-25T01:21:10.254Z,62.00
2024-03-25T01:21:40.812Z,61.00
2024-03-25T01:22:11.380Z,62.33
2024-03-25T01:22:41.922Z,63.33
2024-03-25T01:23:12.480Z,65.67
2024-03-25T01:23:43.039Z,77.67
2024-03-25T01:24:14.760Z,96.00
2024-03-25T01:24:45.421Z,101.67
2024-03-25T01:25:15.980Z,99.00
2024-03-25T01:25:47.579Z,96.00
2024-03-25T01:26:18.142Z,93.00
2024-03-25T01:26:48.755Z,91.33
2024-03-25T01:27:19.333Z,90.33
2024-03-25T01:27:49.887Z,89.33
2024-03-25T01:28:20.453Z,87.33
2024-03-25T01:28:51.017Z,85.00
2024-03-25T01:29:21.984Z,83.00
2024-03-25T01:29:52.568Z,78.67
2024-03-25T01:30:23.114Z,73.00
2024-03-25T01:30:54.018Z,69.00
2024-03-25T01:31:24.591Z,66.00
2024-03-25T01:31:55.184Z,64.00
2024-03-25T01:32:25.745Z,63.00
2024-03-25T01:32:56.354Z,62.33
2024-03-25T01:33:26.911Z,60.67
2024-03-25T01:33:57.469Z,59.00
2024-03-25T01:34:28.021Z,56.00
2024-03-25T01:34:58.600Z,53.33
2024-03-25T01:35:29.204Z,52.00
2024-03-25T01:35:59.824Z,51.67
2024-03-25T01:36:31.797Z,50.67
2024-03-25T01:37:03.758Z,50.67
2024-03-25T01:37:34.317Z,51.33
2024-03-25T01:38:04.919Z,52.33
2024-03-25T01:38:35.481Z,53.00
2024-03-25T01:39:06.047Z,54.00
2024-03-25T01:39:37.435Z,54.00
2024-03-25T01:40:10.266Z,53.33
2024-03-25T01:40:42.920Z,51.67
2024-03-25T01:41:16.240Z,49.00
2024-03-25T01:41:46.987Z,47.33
2024-03-25T01:42:17.548Z,46.33
2024-03-25T01:43:01.200Z,45.00
2024-03-25T01:43:31.756Z,44.33
2024-03-25T01:44:02.317Z,44.00
2024-03-25T01:44:32.930Z,43.33
2024-03-25T01:45:03.740Z,42.67
2024-03-25T01:45:34.966Z,42.67
2024-03-25T01:46:06.075Z,43.00
2024-03-25T01:46:36.971Z,44.00
2024-03-25T01:47:07.546Z,44.00
2024-03-25T01:47:39.670Z,44.00
2024-03-25T01:48:11.062Z,43.67
2024-03-25T01:48:42.363Z,43.00
2024-03-25T01:49:14.010Z,42.00
2024-03-25T01:49:44.589Z,42.00
2024-03-25T01:50:16.160Z,42.33
2024-03-25T01:50:46.717Z,43.00
2024-03-25T01:51:18.672Z,43.00
2024-03-25T01:51:49.422Z,43.00
2024-03-25T01:52:22.481Z,43.00
2024-03-25T01:52:53.871Z,43.33
2024-03-25T01:53:26.718Z,44.00
2024-03-25T01:53:59.171Z,44.00
2024-03-25T01:54:31.809Z,44.00
2024-03-25T01:55:03.759Z,44.00
2024-03-25T01:55:35.304Z,44.00
2024-03-25T01:56:06.358Z,44.00
2024-03-25T01:56:38.473Z,44.00
2024-03-25T01:57:09.614Z,44.00
2024-03-25T01:57:40.281Z,44.67
2024-03-25T01:58:11.228Z,48.33
2024-03-25T01:58:42.611Z,77.33
2024-03-25T01:59:16.576Z,94.67
2024-03-25T01:59:47.476Z,98.00
2024-03-25T02:00:21.046Z,94.00
2024-03-25T02:00:53.264Z,89.67
2024-03-25T02:01:24.237Z,84.33
2024-03-25T02:01:55.579Z,78.33
2024-03-25T02:02:29.506Z,76.00
2024-03-25T02:03:00.169Z,74.33
2024-03-25T02:03:31.130Z,73.00
2024-03-25T02:04:02.711Z,72.33
2024-03-25T02:04:33.964Z,72.00
2024-03-25T02:05:06.294Z,71.00
2024-03-25T02:05:38.174Z,70.00
2024-03-25T02:06:17.297Z,68.00
2024-03-25T02:06:49.487Z,65.00
2024-03-25T02:07:20.705Z,62.33
2024-03-25T02:07:55.965Z,60.33
2024-03-25T02:08:28.386Z,59.00
2024-03-25T02:09:01.253Z,58.00
2024-03-25T02:09:33.199Z,57.00
2024-03-25T02:10:05.974Z,56.33
2024-03-25T02:10:38.127Z,56.00
2024-03-25T02:11:10.739Z,57.00
2024-03-25T02:11:42.055Z,57.00
2024-03-25T02:12:14.320Z,57.00
2024-03-25T02:12:46.063Z,57.00
2024-03-25T02:13:17.393Z,57.00
2024-03-25T02:13:47.975Z,57.00
2024-03-25T02:14:21.563Z,57.00
2024-03-25T02:14:53.177Z,57.00
2024-03-25T02:15:27.712Z,57.00
2024-03-25T02:16:00.732Z,57.00
2024-03-25T02:16:31.306Z,57.00
2024-03-25T02:17:02.993Z,57.00
2024-03-25T02:17:33.564Z,56.33
2024-03-25T02:18:04.252Z,56.00
2024-03-25T02:18:35.984Z,56.00
2024-03-25T02:19:08.935Z,56.00
2024-03-25T02:19:42.424Z,56.00
2024-03-25T02:20:15.836Z,56.00
2024-03-25T02:20:46.812Z,56.00
2024-03-25T02:21:18.390Z,56.00
2024-03-25T02:21:48.997Z,56.00
2024-03-25T02:22:19.645Z,56.00
2024-03-25T02:22:50.667Z,56.00
2024-03-25T02:23:23.249Z,56.00
2024-03-25T02:23:57.013Z,56.00
2024-03-25T02:24:30.273Z,56.00
2024-03-25T02:25:01.744Z,56.00
2024-03-25T02:25:33.146Z,55.33
2024-03-25T02:26:03.801Z,55.00
2024-03-25T02:26:34.508Z,54.33
2024-03-25T02:27:08.391Z,53.67
2024-03-25T02:27:39.404Z,52.67
2024-03-25T02:28:09.976Z,52.00
2024-03-25T02:28:40.548Z,52.00
2024-03-25T02:29:11.113Z,52.00
2024-03-25T02:29:41.691Z,52.00
2024-03-25T02:30:14.594Z,52.67
2024-03-25T02:30:47.232Z,53.00
2024-03-25T02:31:18.845Z,53.00
2024-03-25T02:31:51.471Z,53.00
2024-03-25T02:32:22.169Z,54.00
2024-03-25T02:32:54.076Z,54.00
2024-03-25T02:33:24.646Z,54.00
2024-03-25T02:33:56.386Z,55.00
2024-03-25T02:34:27.476Z,55.33
2024-03-25T02:34:58.645Z,56.33
2024-03-25T02:35:30.030Z,57.00
2024-03-25T02:36:01.514Z,57.67
2024-03-25T02:36:32.507Z,58.33
2024-03-25T02:37:04.560Z,59.33
2024-03-25T02:37:36.181Z,60.33
2024-03-25T02:38:07.106Z,61.67
2024-03-25T02:38:37.940Z,63.33
2024-03-25T02:39:11.092Z,64.33
2024-03-25T02:39:44.052Z,65.67
2024-03-25T02:40:15.080Z,66.00
2024-03-25T02:40:46.675Z,66.33
2024-03-25T02:41:17.448Z,67.00
2024-03-25T02:41:48.053Z,68.00
2024-03-25T02:42:20.791Z,68.00
2024-03-25T02:42:51.553Z,68.00
2024-03-25T02:43:23.215Z,68.67
2024-03-25T02:43:54.799Z,68.33
2024-03-25T02:44:25.542Z,68.00
2024-03-25T02:44:56.411Z,68.00
2024-03-25T02:45:27.732Z,68.00
2024-03-25T02:46:01.510Z,68.00
2024-03-25T02:46:33.839Z,68.00
2024-03-25T02:47:06.523Z,68.00
2024-03-25T02:47:37.077Z,68.00
2024-03-25T02:48:09.607Z,68.33
2024-03-25T02:48:40.190Z,69.33
2024-03-25T02:49:10.741Z,70.67
2024-03-25T02:49:43.238Z,71.67
2024-03-25T02:50:14.810Z,73.33
2024-03-25T02:50:47.999Z,75.00
2024-03-25T02:51:18.572Z,77.33
2024-03-25T02:51:49.612Z,78.00
2024-03-25T02:52:20.702Z,79.00
2024-03-25T02:52:52.423Z,79.00
2024-03-25T02:53:23.009Z,79.67
2024-03-25T02:53:53.580Z,80.33
2024-03-25T02:54:24.127Z,81.33
2024-03-25T02:54:54.690Z,82.33
2024-03-25T02:55:25.248Z,83.67
2024-03-25T02:55:56.835Z,85.00
2024-03-25T02:56:27.437Z,87.00
2024-03-25T02:56:58.005Z,88.00
2024-03-25T02:57:28.571Z,88.00
2024-03-25T02:57:59.169Z,88.33
2024-03-25T02:58:29.746Z,89.33
2024-03-25T02:59:00.408Z,91.00
2024-03-25T02:59:30.992Z,94.00
2024-03-25T03:00:02.330Z,97.00
2024-03-25T03:00:34.024Z,100.00
2024-03-25T03:01:07.377Z,102.00
2024-03-25T03:01:39.400Z,105.00
2024-03-25T03:02:10.362Z,107.67
2024-03-25T03:02:40.930Z,107.33
2024-03-25T03:03:11.521Z,107.00
2024-03-25T03:03:44.338Z,107.00
2024-03-25T03:04:14.900Z,107.00
2024-03-25T03:04:45.475Z,107.00
2024-03-25T03:05:16.575Z,108.33
2024-03-25T03:05:47.124Z,112.00
2024-03-25T03:06:18.901Z,113.67
2024-03-25T03:06:49.491Z,113.33
2024-03-25T03:07:21.579Z,112.33
2024-03-25T03:07:52.729Z,110.67
2024-03-25T03:08:23.288Z,109.33
2024-03-25T03:08:54.893Z,108.33
2024-03-25T03:09:25.898Z,107.67
2024-03-25T03:09:56.482Z,107.00
2024-03-25T03:10:27.061Z,106.33
2024-03-25T03:10:58.657Z,104.67
2024-03-25T03:11:32.837Z,101.33
2024-03-25T03:12:03.545Z,96.33
2024-03-25T03:12:35.163Z,93.33
2024-03-25T03:13:06.109Z,92.00
2024-03-25T03:13:41.283Z,91.00
2024-03-25T03:14:11.887Z,91.00
2024-03-25T03:14:43.398Z,91.67
2024-03-25T03:15:16.432Z,92.00
2024-03-25T03:15:48.134Z,92.00
2024-03-25T03:16:18.715Z,92.00
2024-03-25T03:16:55.753Z,91.67
2024-03-25T03:17:27.608Z,91.00
2024-03-25T03:17:58.197Z,91.00
2024-03-25T03:18:28.786Z,90.33
2024-03-25T03:19:00.435Z,89.67
2024-03-25T03:19:33.081Z,89.00
2024-03-25T03:20:11.496Z,90.00
2024-03-25T03:20:42.660Z,92.00
2024-03-25T03:21:13.261Z,97.00
2024-03-25T03:21:43.821Z,103.00
2024-03-25T03:22:15.108Z,109.00
2024-03-25T03:22:45.668Z,114.00
2024-03-25T03:23:22.212Z,120.33
2024-03-25T03:23:53.978Z,129.67
2024-03-25T03:24:24.528Z,136.33
2024-03-25T03:24:56.149Z,138.00
2024-03-25T03:25:26.738Z,142.00
2024-03-25T03:25:59.675Z,150.00
2024-03-25T03:26:30.358Z,157.67
2024-03-25T03:27:01.102Z,164.67
2024-03-25T03:27:32.228Z,166.67
2024-03-25T03:28:02.904Z,170.00
2024-03-25T03:28:33.953Z,176.00
2024-03-25T03:29:07.185Z,180.67
2024-03-25T03:29:37.737Z,183.00
2024-03-25T03:30:10.323Z,179.33
2024-03-25T03:30:41.341Z,174.00
2024-03-25T03:31:11.895Z,169.33
2024-03-25T03:31:43.299Z,166.67
2024-03-25T03:32:13.872Z,166.33
2024-03-25T03:32:44.426Z,164.67
2024-03-25T03:33:15.993Z,164.00
2024-03-25T03:33:46.544Z,163.33
2024-03-25T03:34:18.133Z,163.67
2024-03-25T03:34:48.719Z,165.67
2024-03-25T03:35:20.966Z,166.33
2024-03-25T03:35:53.001Z,169.00
2024-03-25T03:36:23.560Z,170.67
2024-03-25T03:36:54.140Z,173.67
2024-03-25T03:37:24.719Z,177.00
2024-03-25T03:37:55.264Z,178.67
2024-03-25T03:38:25.835Z,181.00
2024-03-25T03:38:57.727Z,181.67
2024-03-25T03:39:28.283Z,180.33
2024-03-25T03:39:58.949Z,179.33
2024-03-25T03:40:32.862Z,179.67
2024-03-25T03:41:03.672Z,183.67
2024-03-25T03:41:34.250Z,188.33
2024-03-25T03:42:04.847Z,192.67
2024-03-25T03:42:35.532Z,194.00
2024-03-25T03:43:07.185Z,193.67
2024-03-25T03:43:37.744Z,192.00
2024-03-25T03:44:09.704Z,190.00
2024-03-25T03:44:40.285Z,187.33
2024-03-25T03:45:12.600Z,186.33
2024-03-25T03:45:43.492Z,186.00
2024-03-25T03:46:14.077Z,185.33
2024-03-25T03:46:44.639Z,185.00
2024-03-25T03:47:17.939Z,186.00
2024-03-25T03:47:49.700Z,186.67
2024-03-25T03:48:21.810Z,187.00
2024-03-25T03:48:54.420Z,188.00
2024-03-25T03:49:24.982Z,187.67
2024-03-25T03:49:55.563Z,187.00
2024-03-25T03:50:27.156Z,186.00
2024-03-25T03:50:57.765Z,185.33
2024-03-25T03:51:28.757Z,183.00
2024-03-25T03:52:02.413Z,180.00
2024-03-25T03:52:33.188Z,177.00
2024-03-25T03:53:05.410Z,175.00
2024-03-25T03:53:35.966Z,174.00
2024-03-25T03:54:06.528Z,173.67
2024-03-25T03:54:37.222Z,174.00
2024-03-25T03:55:09.206Z,174.00
2024-03-25T03:55:39.786Z,175.00
2024-03-25T03:56:11.023Z,176.33
2024-03-25T03:56:42.804Z,177.67
2024-03-25T03:57:13.414Z,178.33
2024-03-25T03:57:43.972Z,179.00
2024-03-25T03:58:14.557Z,179.00
2024-03-25T03:58:45.126Z,179.00
2024-03-25T03:59:15.680Z,178.67
2024-03-25T03:59:46.234Z,177.67
2024-03-25T04:00:18.079Z,176.00
2024-03-25T04:00:49.138Z,173.00
2024-03-25T04:01:19.764Z,171.33
2024-03-25T04:01:50.766Z,169.67
2024-03-25T04:02:21.359Z,167.67
2024-03-25T04:02:51.928Z,165.00
2024-03-25T04:03:22.523Z,162.33
2024-03-25T04:03:53.096Z,163.33
2024-03-25T04:04:27.076Z,164.00
2024-03-25T04:04:57.654Z,165.00
2024-03-25T04:05:28.934Z,183.67
2024-03-25T04:05:59.497Z,257.00
2024-03-25T04:06:32.183Z,279.33
2024-03-25T04:07:02.776Z,280.33
2024-03-25T04:07:33.774Z,278.00
2024-03-25T04:08:04.582Z,275.33
2024-03-25T04:08:36.151Z,267.33
2024-03-25T04:09:07.120Z,260.33
2024-03-25T04:09:39.332Z,251.33
2024-03-25T04:10:11.209Z,245.67
2024-03-25T04:10:42.337Z,241.67
2024-03-25T04:11:14.706Z,243.67
2024-03-25T04:11:45.575Z,260.67
2024-03-25T04:12:20.473Z,290.67
2024-03-25T04:12:52.020Z,298.00
2024-03-25T04:13:24.274Z,287.67
2024-03-25T04:13:55.752Z,276.33
2024-03-25T04:14:26.518Z,267.33
2024-03-25T04:14:58.280Z,261.33
2024-03-25T04:15:29.855Z,256.67
2024-03-25T04:16:03.713Z,253.67
2024-03-25T04:16:34.320Z,252.33
2024-03-25T04:17:06.659Z,251.00
2024-03-25T04:17:37.735Z,250.00
2024-03-25T04:18:08.395Z,248.00
2024-03-25T04:18:41.460Z,246.00
2024-03-25T04:19:14.279Z,243.67
2024-03-25T04:19:45.258Z,241.00
2024-03-25T04:20:16.112Z,239.00
2024-03-25T04:20:47.159Z,235.33
2024-03-25T04:21:17.727Z,232.00
2024-03-25T04:21:48.291Z,228.00
2024-03-25T04:22:18.854Z,220.67
2024-03-25T04:22:49.448Z,215.00
2024-03-25T04:23:22.559Z,210.33
2024-03-25T04:23:53.904Z,207.67
2024-03-25T04:24:28.253Z,206.33
2024-03-25T04:24:58.811Z,204.67
2024-03-25T04:25:29.399Z,202.67
2024-03-25T04:26:01.287Z,201.33
2024-03-25T04:26:32.009Z,203.00
2024-03-25T04:27:02.703Z,204.00
2024-03-25T04:27:33.294Z,203.67
2024-03-25T04:28:04.981Z,201.00
2024-03-25T04:28:35.542Z,199.33
2024-03-25T04:29:07.278Z,199.00
2024-03-25T04:29:39.253Z,198.67
2024-03-25T04:30:11.440Z,197.33
2024-03-25T04:30:42.714Z,195.67
2024-03-25T04:31:13.298Z,195.00
2024-03-25T04:31:43.864Z,203.67
2024-03-25T04:32:14.425Z,257.33
2024-03-25T04:32:45.178Z,298.33
2024-03-25T04:33:17.542Z,317.00
2024-03-25T04:33:48.107Z,320.00
2024-03-25T04:34:20.798Z,326.67
2024-03-25T04:34:53.977Z,322.33
2024-03-25T04:35:24.984Z,301.33
2024-03-25T04:35:55.604Z,303.33
2024-03-25T04:36:26.709Z,353.00
2024-03-25T04:36:58.316Z,351.00
2024-03-25T04:37:29.753Z,336.33
2024-03-25T04:38:00.447Z,320.33
2024-03-25T04:38:31.033Z,305.67
2024-03-25T04:39:02.093Z,291.33
2024-03-25T04:39:32.674Z,286.67
2024-03-25T04:40:03.368Z,277.00
2024-03-25T04:40:33.972Z,262.33
2024-03-25T04:41:07.084Z,252.33
2024-03-25T04:41:37.632Z,242.33
2024-03-25T04:42:08.198Z,235.33
2024-03-25T04:42:40.713Z,230.67
2024-03-25T04:43:11.285Z,227.67
2024-03-25T04:43:41.863Z,224.00
2024-03-25T04:44:12.441Z,220.33
2024-03-25T04:44:46.499Z,218.67
2024-03-25T04:45:18.376Z,217.00
2024-03-25T04:45:49.297Z,213.33
2024-03-25T04:46:20.893Z,210.67
2024-03-25T04:46:51.777Z,207.67
2024-03-25T04:47:23.404Z,207.67
2024-03-25T04:47:56.649Z,209.33
2024-03-25T04:48:27.211Z,212.00
2024-03-25T04:48:57.767Z,213.00
2024-03-25T04:49:28.368Z,212.33
2024-03-25T04:49:58.936Z,212.00
2024-03-25T04:50:30.504Z,214.00
2024-03-25T04:51:01.072Z,217.00
2024-03-25T04:51:31.882Z,218.67
2024-03-25T04:52:03.267Z,219.67
2024-03-25T04:52:33.872Z,220.00
2024-03-25T04:53:04.459Z,220.00
2024-03-25T04:53:35.055Z,219.67
2024-03-25T04:54:10.973Z,217.00
2024-03-25T04:54:41.533Z,215.67
2024-03-25T04:55:13.092Z,216.67
2024-03-25T04:55:44.105Z,217.67
2024-03-25T04:56:14.668Z,218.00
2024-03-25T04:56:45.653Z,217.00
2024-03-25T04:57:16.210Z,214.00
2024-03-25T04:57:46.802Z,210.67
2024-03-25T04:58:17.360Z,205.33
2024-03-25T04:58:47.924Z,202.33
2024-03-25T04:59:18.484Z,201.33
2024-03-25T04:59:49.028Z,201.00
2024-03-25T05:00:19.646Z,202.33
2024-03-25T05:00:50.197Z,202.67
2024-03-25T05:01:21.781Z,201.67
2024-03-25T05:01:53.566Z,200.00
2024-03-25T05:02:25.149Z,196.00
2024-03-25T05:02:55.805Z,191.67
2024-03-25T05:03:26.354Z,188.67
2024-03-25T05:03:57.466Z,185.67
2024-03-25T05:04:28.134Z,185.00
2024-03-25T05:04:58.726Z,184.67
2024-03-25T05:05:29.539Z,185.67
2024-03-25T05:06:00.115Z,216.00
2024-03-25T05:06:33.563Z,284.00
2024-03-25T05:07:04.494Z,333.33
2024-03-25T05:07:36.040Z,349.33
2024-03-25T05:08:07.769Z,369.33
2024-03-25T05:08:38.335Z,371.67
2024-03-25T05:09:08.909Z,380.00
2024-03-25T05:09:39.677Z,383.00
2024-03-25T05:10:10.490Z,392.67
2024-03-25T05:10:41.508Z,399.00
2024-03-25T05:11:12.559Z,383.00
2024-03-25T05:11:44.922Z,368.33
2024-03-25T05:12:15.814Z,360.00
2024-03-25T05:12:48.209Z,350.00
2024-03-25T05:13:18.894Z,336.67
2024-03-25T05:13:49.460Z,322.00
2024-03-25T05:14:21.533Z,315.33
2024-03-25T05:14:52.124Z,312.00
2024-03-25T05:15:22.723Z,305.33
2024-03-25T05:15:53.345Z,290.00
2024-03-25T05:16:24.029Z,277.00
2024-03-25T05:16:55.607Z,270.33
2024-03-25T05:17:26.181Z,285.00
2024-03-25T05:17:56.785Z,331.00
2024-03-25T05:18:27.342Z,330.33
2024-03-25T05:18:58.266Z,317.67
2024-03-25T05:19:29.271Z,313.33
2024-03-25T05:20:01.152Z,305.33
2024-03-25T05:20:33.983Z,289.33
2024-03-25T05:21:04.685Z,276.00
2024-03-25T05:21:35.249Z,268.33
2024-03-25T05:22:05.797Z,262.00
2024-03-25T05:22:36.371Z,260.00
2024-03-25T05:23:07.410Z,258.67
2024-03-25T05:23:37.967Z,256.33
2024-03-25T05:24:08.538Z,250.00
2024-03-25T05:24:39.086Z,246.00
2024-03-25T05:25:09.789Z,245.33
2024-03-25T05:25:40.349Z,253.67
2024-03-25T05:26:10.923Z,264.00
2024-03-25T05:26:41.488Z,307.67
2024-03-25T05:27:12.060Z,361.67
2024-03-25T05:27:42.616Z,389.00
2024-03-25T05:28:13.671Z,396.67
2024-03-25T05:28:44.251Z,399.33
2024-03-25T05:29:15.850Z,398.67
2024-03-25T05:29:46.434Z,397.33
2024-03-25T05:30:17.003Z,392.67
2024-03-25T05:30:47.577Z,385.00
2024-03-25T05:31:18.140Z,402.00
2024-03-25T05:31:58.882Z,391.33
2024-03-25T05:32:29.471Z,361.67
2024-03-25T05:33:00.066Z,350.33
2024-03-25T05:33:32.024Z,347.00
2024-03-25T05:34:09.015Z,334.67
2024-03-25T05:34:40.603Z,318.67
2024-03-25T05:35:11.856Z,380.00
2024-03-25T05:35:46.696Z,415.00
2024-03-25T05:36:17.248Z,401.33
2024-03-25T05:36:49.194Z,401.67
2024-03-25T05:37:22.378Z,400.33
2024-03-25T05:37:53.912Z,386.33
2024-03-25T05:38:25.018Z,377.00
2024-03-25T05:38:57.150Z,371.00
2024-03-25T05:39:27.746Z,368.33
2024-03-25T05:39:59.787Z,367.33
2024-03-25T05:40:31.625Z,366.33
2024-03-25T05:41:02.228Z,365.00
2024-03-25T05:41:32.813Z,361.33
2024-03-25T05:42:04.109Z,356.33
2024-03-25T05:42:35.077Z,347.67
2024-03-25T05:43:05.651Z,334.67
2024-03-25T05:43:36.709Z,334.33
2024-03-25T05:44:07.511Z,337.67
2024-03-25T05:44:38.143Z,337.67
2024-03-25T05:45:09.601Z,331.67
2024-03-25T05:45:40.592Z,328.33
2024-03-25T05:46:11.739Z,325.33
2024-03-25T05:46:43.909Z,310.33
2024-03-25T05:47:14.556Z,303.00
2024-03-25T05:47:46.092Z,320.33
2024-03-25T05:48:16.654Z,325.00
2024-03-25T05:48:47.230Z,320.00
2024-03-25T05:49:22.585Z,305.67
2024-03-25T05:49:53.587Z,300.00
2024-03-25T05:50:24.144Z,291.33
2024-03-25T05:51:01.926Z,279.33
2024-03-25T05:51:35.747Z,273.67
2024-03-25T05:52:06.324Z,275.00
2024-03-25T05:52:37.245Z,279.00
2024-03-25T05:53:08.496Z,283.33
2024-03-25T05:53:39.070Z,283.67
2024-03-25T05:54:09.644Z,283.00
2024-03-25T05:54:40.657Z,280.33
2024-03-25T05:55:12.375Z,279.67
2024-03-25T05:55:42.946Z,274.33
2024-03-25T05:56:13.515Z,263.33
2024-03-25T05:56:45.205Z,274.33
2024-03-25T05:57:15.789Z,334.67
2024-03-25T05:57:46.366Z,369.33
2024-03-25T05:58:17.942Z,367.33
2024-03-25T05:58:48.527Z,363.33
2024-03-25T05:59:19.126Z,355.67
2024-03-25T05:59:49.766Z,346.67
2024-03-25T06:00:20.922Z,346.33
2024-03-25T06:00:52.040Z,342.00
2024-03-25T06:01:22.891Z,338.00
2024-03-25T06:01:53.434Z,335.67
2024-03-25T06:02:24.286Z,330.67
2024-03-25T06:02:54.839Z,314.00
2024-03-25T06:03:26.534Z,296.33
2024-03-25T06:03:57.790Z,289.67
2024-03-25T06:04:28.356Z,289.67
2024-03-25T06:04:58.939Z,293.00
2024-03-25T06:05:30.954Z,295.00
2024-03-25T06:06:04.299Z,297.67
2024-03-25T06:06:36.104Z,299.33
2024-03-25T06:07:08.311Z,303.00
2024-03-25T06:07:39.878Z,312.67
2024-03-25T06:08:18.459Z,317.00
2024-03-25T06:08:50.672Z,320.67
2024-03-25T06:09:21.467Z,323.67
2024-03-25T06:09:53.511Z,324.00
2024-03-25T06:10:24.097Z,324.00
2024-03-25T06:10:54.953Z,323.33
2024-03-25T06:11:28.192Z,322.33
2024-03-25T06:11:58.751Z,321.67
2024-03-25T06:12:29.318Z,320.67
2024-03-25T06:13:00.082Z,318.00
2024-03-25T06:13:31.924Z,315.00
2024-03-25T06:14:02.615Z,329.67
2024-03-25T06:14:33.370Z,345.33
2024-03-25T06:15:04.233Z,341.00
2024-03-25T06:15:34.796Z,335.00
2024-03-25T06:16:05.521Z,332.67
2024-03-25T06:16:36.087Z,330.00
2024-03-25T06:17:06.672Z,321.00
2024-03-25T06:17:37.254Z,312.33
2024-03-25T06:18:07.858Z,311.00
2024-03-25T06:18:38.421Z,310.67
2024-03-25T06:19:08.986Z,306.67
2024-03-25T06:19:40.508Z,298.00
2024-03-25T06:20:11.136Z,297.67
2024-03-25T06:20:41.834Z,326.00
2024-03-25T06:21:13.271Z,328.00
2024-03-25T06:21:45.402Z,319.67
2024-03-25T06:22:15.973Z,294.67
2024-03-25T06:22:46.683Z,282.00
2024-03-25T06:23:24.550Z,288.00
2024-03-25T06:23:55.539Z,296.00
2024-03-25T06:24:26.556Z,298.33
2024-03-25T06:24:57.103Z,305.00
2024-03-25T06:25:28.129Z,307.00
2024-03-25T06:25:58.711Z,306.33
2024-03-25T06:26:29.288Z,304.33
2024-03-25T06:26:59.843Z,300.67
2024-03-25T06:27:31.816Z,290.67
2024-03-25T06:28:02.433Z,275.00
2024-03-25T06:28:32.992Z,258.33
2024-03-25T06:29:04.710Z,247.33
2024-03-25T06:29:35.629Z,240.67
2024-03-25T06:30:45.796Z,236.33
2024-03-25T06:31:34.737Z,251.33
2024-03-25T06:32:24.006Z,252.33
2024-03-25T06:33:13.141Z,253.33
2024-03-25T06:34:02.644Z,242.67
2024-03-25T06:34:33.343Z,228.67
2024-03-25T06:35:05.899Z,217.33
2024-03-25T06:35:36.939Z,207.00
2024-03-25T06:36:08.544Z,200.00
2024-03-25T06:36:39.129Z,195.67
2024-03-25T06:37:09.698Z,194.33
2024-03-25T06:37:40.260Z,194.67